06FA weather

William P Gwinn Airport
Jupiter, Florida, United States

Public forecast

Using degrees Fahrenheit for public forecast. Weather courtesy of forecast.io.

Closest aviation weather report (METAR) to William P Gwinn Airport

Closest report is Witham Field, 17.4 nm (32.2 km) NNE. Retrieved 2019/10/21 02:35 UTC (0 seconds ago):

KSUA 210235Z AUTO 22003KT 10SM SCT070 OVC085 27/23 A2998 RMK AO2

Closest aviation forecast (TAF) to William P Gwinn Airport

Closest forecast is Witham Field, 17.4 nm (32.2 km) NNE. Retrieved 2019-10-21 00:33 UTC (2 hours ago):

TAF KSUA 202330Z 2100/2124 27006KT P6SM FEW040 BKN070 FM210200 VRB02KT P6SM FEW040 SCT080 FM211400 21005KT P6SM FEW040 SCT080 FM211800 14008KT P6SM VCSH SCT040 BKN080